Time;durP1;ratioP1;P1;durP2;ratioP2;P2;SDS_P1;SDS_P2;PMS_P1;PMS_P2;Temp;Humidity;BMP_temperature;BMP_pressure;BME280_temperature;BME280_humidity;BME280_pressure;Samples;Min_cycle;Max_cycle;Signal;HPM_P1;HPM_P2
2023/07/03 00:00:12;;;;;;;7.88;3.70;;;17.10;99.90;;;;;;5055516;28;20043;-70
2023/07/03 00:02:39;;;;;;;14.10;5.03;;;17.00;99.90;;;;;;5074247;28;20037;-70
2023/07/03 00:05:06;;;;;;;12.25;3.80;;;17.30;99.90;;;;;;5054872;28;20037;-71
2023/07/03 00:07:33;;;;;;;11.50;4.75;;;17.20;99.90;;;;;;5055769;28;20039;-70
2023/07/03 00:09:58;;;;;;;16.27;5.50;;;16.90;99.90;;;;;;5038267;28;20124;-71
2023/07/03 00:12:24;;;;;;;14.45;3.85;;;17.00;99.90;;;;;;5055695;28;20482;-70
2023/07/03 00:14:50;;;;;;;16.20;4.07;;;17.10;99.90;;;;;;5055642;28;20039;-70
2023/07/03 00:17:15;;;;;;;12.90;4.53;;;17.10;99.90;;;;;;5055809;28;20093;-70
2023/07/03 00:19:41;;;;;;;15.27;3.92;;;17.00;99.90;;;;;;5054926;28;20044;-70
2023/07/03 00:22:06;;;;;;;12.40;3.70;;;17.30;99.90;;;;;;5055622;28;20044;-70
2023/07/03 00:24:32;;;;;;;15.10;4.25;;;17.20;99.90;;;;;;5055204;28;20040;-70
2023/07/03 00:26:59;;;;;;;10.35;3.50;;;17.00;99.90;;;;;;5054729;28;20040;-70
2023/07/03 00:29:28;;;;;;;13.27;4.40;;;17.20;99.90;;;;;;5054704;28;20048;-71
2023/07/03 00:31:54;;;;;;;9.38;4.38;;;17.50;99.90;;;;;;5055381;28;20175;-70
2023/07/03 00:34:20;;;;;;;13.60;5.00;;;17.00;99.90;;;;;;5054829;28;20551;-70
2023/07/03 00:36:46;;;;;;;13.82;3.70;;;17.00;99.90;;;;;;5055092;28;20121;-70
2023/07/03 00:39:12;;;;;;;16.42;3.60;;;17.00;99.90;;;;;;5054502;28;20119;-70
2023/07/03 00:41:38;;;;;;;10.60;3.60;;;17.00;99.90;;;;;;5054968;28;20141;-71
2023/07/03 00:44:08;;;;;;;15.43;3.85;;;17.00;99.90;;;;;;5038520;28;20500;-70
2023/07/03 00:46:34;;;;;;;10.88;3.72;;;17.10;99.90;;;;;;5038707;28;20040;-70
2023/07/03 00:49:00;;;;;;;15.38;3.72;;;16.90;99.90;;;;;;5054357;28;20055;-70
2023/07/03 00:51:26;;;;;;;11.57;3.55;;;;;;;;;;5054738;28;20089;-70
2023/07/03 00:53:52;;;;;;;14.07;4.18;;;17.20;99.90;;;;;;5054581;28;20040;-70
2023/07/03 00:56:17;;;;;;;11.93;3.60;;;17.10;99.90;;;;;;5055039;28;20039;-70
2023/07/03 00:58:43;;;;;;;9.45;3.70;;;17.40;99.90;;;;;;5054430;28;20033;-70
2023/07/03 01:01:19;;;;;;;14.07;4.00;;;17.00;99.90;;;;;;5054534;28;20040;-70
2023/07/03 01:04:07;;;;;;;12.82;3.55;;;17.10;99.90;;;;;;5038169;28;20047;-70
2023/07/03 01:06:42;;;;;;;12.68;3.63;;;17.10;99.90;;;;;;5054035;28;20049;-70
2023/07/03 01:09:11;;;;;;;11.23;3.70;;;17.10;99.90;;;;;;5053852;28;20044;-70
2023/07/03 01:11:38;;;;;;;15.93;3.78;;;17.00;99.90;;;;;;5054569;28;20044;-71
2023/07/03 01:14:06;;;;;;;11.65;3.17;;;17.00;99.90;;;;;;5054490;28;20116;-70
2023/07/03 01:16:33;;;;;;;15.05;3.38;;;17.00;99.90;;;;;;5053959;28;20071;-71
2023/07/03 01:19:00;;;;;;;16.05;4.07;;;16.90;99.90;;;;;;5053631;28;20047;-70
2023/07/03 01:21:36;;;;;;;11.73;3.22;;;16.90;99.90;;;;;;5072157;28;20050;-71
2023/07/03 01:24:10;;;;;;;9.70;4.10;;;;;;;;;;5054340;28;20044;-70
2023/07/03 01:26:38;;;;;;;9.38;3.08;;;;;;;;;;5054257;28;20044;-70
2023/07/03 01:29:05;;;;;;;8.85;3.55;;;;;;;;;;5053721;28;20127;-71
2023/07/03 01:31:32;;;;;;;10.57;3.67;;;;;;;;;;5054879;28;20480;-70
2023/07/03 01:33:59;;;;;;;14.98;2.80;;;;;;;;;;5054546;28;20123;-71
2023/07/03 01:36:26;;;;;;;8.93;2.20;;;;;;;;;;5054317;28;20041;-71
2023/07/03 01:38:53;;;;;;;13.98;2.90;;;;;;;;;;5053566;28;20036;-71
2023/07/03 01:41:20;;;;;;;7.43;2.00;;;;;;;;;;5053818;28;20400;-70
2023/07/03 01:43:46;;;;;;;9.70;2.30;;;;;;;;;;5071717;28;20067;-71
2023/07/03 01:46:13;;;;;;;11.20;3.03;;;;;;;;;;5053886;28;20048;-70
2023/07/03 01:48:39;;;;;;;7.88;1.80;;;;;;;;;;5036672;28;20042;-70
2023/07/03 01:51:07;;;;;;;9.90;2.97;;;;;;;;;;5053614;28;20139;-70
2023/07/03 01:53:38;;;;;;;9.48;2.20;;;;;;;;;;5053785;28;20123;-70
2023/07/03 01:56:04;;;;;;;11.48;2.50;;;;;;;;;;5053529;28;20040;-70
2023/07/03 01:58:49;;;;;;;8.45;2.17;;;;;;;;;;5053112;28;20555;-71
2023/07/03 02:01:17;;;;;;;12.27;2.70;;;;;;;;;;5053734;28;20036;-70
2023/07/03 02:03:45;;;;;;;7.95;2.30;;;;;;;;;;5053929;28;20055;-70
2023/07/03 02:06:22;;;;;;;13.93;2.70;;;;;;;;;;5053535;28;20044;-70
2023/07/03 02:08:49;;;;;;;10.18;2.47;;;;;;;;;;5052912;28;20044;-70
2023/07/03 02:11:16;;;;;;;6.57;2.17;;;;;;;;;;5053243;28;20043;-70
2023/07/03 02:13:42;;;;;;;9.93;2.15;;;;;;;;;;5036915;28;20127;-70
2023/07/03 02:16:08;;;;;;;11.60;1.95;;;;;;;;;;5053769;28;20044;-70
2023/07/03 02:18:35;;;;;;;8.88;2.25;;;;;;;;;;5052979;28;20124;-70
2023/07/03 02:21:01;;;;;;;9.27;2.00;;;;;;;;;;5036512;28;20074;-71
2023/07/03 02:23:27;;;;;;;9.30;1.70;;;;;;;;;;5036833;28;20087;-71
2023/07/03 02:25:53;;;;;;;10.35;2.08;;;;;;;;;;5053287;28;20044;-70
2023/07/03 02:28:19;;;;;;;9.57;2.55;;;;;;;;;;5037293;28;20071;-70
2023/07/03 02:30:45;;;;;;;11.85;2.67;;;;;;;;;;5057367;28;20089;-71
2023/07/03 02:33:11;;;;;;;6.15;2.47;;;;;;;;;;5040979;28;20040;-70
2023/07/03 02:35:41;;;;;;;10.57;2.33;;;;;;;;;;5074918;28;20608;-70
2023/07/03 02:38:07;;;;;;;11.20;2.53;;;;;;;;;;5040527;28;20036;-70
2023/07/03 02:40:33;;;;;;;8.75;1.77;;;;;;;;;;5075349;28;20098;-71
2023/07/03 02:42:59;;;;;;;20.05;3.20;;;16.20;99.90;;;;;;5057714;28;20052;-70
2023/07/03 02:45:25;;;;;;;9.95;3.17;;;16.10;99.90;;;;;;5057402;28;20045;-70
2023/07/03 02:47:50;;;;;;;9.15;2.03;;;16.10;99.90;;;;;;5057284;28;20045;-71
2023/07/03 02:50:16;;;;;;;9.65;2.00;;;16.10;99.90;;;;;;5056092;28;20040;-71
2023/07/03 02:52:42;;;;;;;16.85;2.08;;;16.20;99.90;;;;;;5057354;28;20037;-70
2023/07/03 02:55:08;;;;;;;8.75;1.73;;;16.10;99.90;;;;;;5056942;28;20044;-71
2023/07/03 02:57:34;;;;;;;8.95;2.05;;;15.90;99.90;;;;;;5057231;28;20036;-71
2023/07/03 02:59:59;;;;;;;8.77;2.13;;;16.40;99.90;;;;;;5056326;28;20044;-71
2023/07/03 03:02:26;;;;;;;6.90;2.08;;;15.80;99.90;;;;;;5056941;28;20040;-71
2023/07/03 03:04:51;;;;;;;8.68;2.45;;;15.90;99.90;;;;;;5057368;28;20063;-70
2023/07/03 03:07:17;;;;;;;12.02;3.22;;;15.90;99.90;;;;;;5056710;28;20488;-71
2023/07/03 03:09:43;;;;;;;7.32;2.13;;;15.90;99.90;;;;;;5056009;28;20045;-71
2023/07/03 03:12:09;;;;;;;10.15;2.20;;;15.70;99.90;;;;;;5056782;28;20047;-71
2023/07/03 03:14:34;;;;;;;9.23;2.08;;;15.70;99.90;;;;;;5074749;28;20025;-70
2023/07/03 03:17:00;;;;;;;7.55;2.10;;;15.70;99.90;;;;;;5056721;28;20041;-71
2023/07/03 03:19:26;;;;;;;9.88;2.20;;;15.70;99.90;;;;;;5056222;28;20044;-71
2023/07/03 03:21:51;;;;;;;8.98;2.05;;;15.60;99.90;;;;;;5056385;28;20427;-71
2023/07/03 03:24:18;;;;;;;8.27;2.38;;;15.80;99.90;;;;;;5056652;28;20040;-71
2023/07/03 03:26:43;;;;;;;7.60;2.25;;;15.70;99.90;;;;;;5039955;28;20047;-71
2023/07/03 03:29:09;;;;;;;9.07;1.77;;;16.20;99.90;;;;;;5039111;28;20041;-70
2023/07/03 03:31:34;;;;;;;12.63;2.85;;;16.40;99.90;;;;;;5056598;28;20496;-70
2023/07/03 03:34:00;;;;;;;6.38;1.67;;;15.60;99.90;;;;;;5056648;28;20082;-71
2023/07/03 03:36:26;;;;;;;11.15;2.35;;;15.50;99.90;;;;;;5056248;28;20044;-70
2023/07/03 03:38:51;;;;;;;8.25;1.70;;;15.50;99.90;;;;;;5038893;28;20043;-71
2023/07/03 03:41:17;;;;;;;11.18;3.03;;;15.50;99.90;;;;;;5057520;28;20041;-71
2023/07/03 03:43:45;;;;;;;10.13;2.53;;;15.50;99.90;;;;;;5075185;28;20127;-71
2023/07/03 03:46:11;;;;;;;6.97;2.33;;;16.30;99.90;;;;;;5074154;28;20048;-71
2023/07/03 03:48:37;;;;;;;9.82;2.05;;;15.60;99.90;;;;;;5056446;28;20553;-71
2023/07/03 03:51:03;;;;;;;8.60;2.20;;;15.50;99.90;;;;;;5074863;28;20045;-71
2023/07/03 03:53:29;;;;;;;11.70;2.47;;;15.40;99.90;;;;;;5057207;28;20392;-71
2023/07/03 03:55:54;;;;;;;11.43;2.60;;;15.50;99.90;;;;;;5056076;28;20041;-71
2023/07/03 03:58:21;;;;;;;9.48;2.25;;;15.50;99.90;;;;;;5056048;28;20119;-71
2023/07/03 04:00:47;;;;;;;8.38;1.80;;;15.50;99.90;;;;;;5055856;28;20040;-71
2023/07/03 04:03:13;;;;;;;7.30;1.80;;;15.50;99.90;;;;;;5055873;28;20044;-71
2023/07/03 04:39:44;;;;;;;;;;;;;;;;;;;;;
2023/07/03 04:43:03;;;;;;;;;;;;;;;;;;;;;
2023/07/03 04:46:43;;;;;;;13.13;2.28;;;15.60;99.90;;;;;;5017164;28;20107;-71
2023/07/03 04:49:48;;;;;;;10.43;2.38;;;15.60;99.90;;;;;;5034620;28;20053;-70
2023/07/03 04:52:44;;;;;;;11.35;2.17;;;15.80;99.90;;;;;;5018479;28;20514;-71
2023/07/03 04:55:33;;;;;;;11.82;2.30;;;15.70;99.90;;;;;;5054045;28;20148;-71
2023/07/03 04:58:34;;;;;;;7.45;2.03;;;15.90;99.90;;;;;;5036294;28;20045;-71
2023/07/03 05:01:52;;;;;;;11.18;2.50;;;15.90;99.90;;;;;;5012360;28;20053;-69
2023/07/03 05:10:55;;;;;;;8.02;2.25;;;16.30;99.90;;;;;;5021689;28;20045;-69
2023/07/03 05:14:04;;;;;;;9.40;2.42;;;16.50;99.90;;;;;;4989997;28;20451;-69
2023/07/03 05:16:59;;;;;;;10.40;2.20;;;16.40;99.90;;;;;;5017187;28;20076;-69
2023/07/03 05:23:15;;;;;;;10.52;2.72;;;16.10;99.90;;;;;;4981758;28;20043;-69
2023/07/03 05:25:55;;;;;;;12.23;3.05;;;16.20;99.90;;;;;;5040243;28;20049;-71
2023/07/03 05:28:27;;;;;;;14.63;2.60;;;16.20;99.90;;;;;;5034833;28;20045;-71
2023/07/03 05:31:28;;;;;;;12.18;2.20;;;16.20;99.90;;;;;;5018573;28;20091;-70
2023/07/03 05:33:59;;;;;;;12.50;2.25;;;16.30;99.90;;;;;;5018684;28;20132;-71
2023/07/03 05:36:57;;;;;;;17.33;2.95;;;16.50;99.90;;;;;;5018651;28;20047;-71
2023/07/03 05:40:07;;;;;;;11.35;2.97;;;16.80;99.90;;;;;;4994639;28;20214;-71
2023/07/03 05:42:50;;;;;;;10.57;2.47;;;16.70;99.90;;;;;;5025687;28;20103;-71
2023/07/03 05:45:22;;;;;;;10.73;2.08;;;16.80;99.90;;;;;;5018416;28;20523;-71
2023/07/03 06:01:26;;;;;;;16.33;3.28;;;17.10;99.90;;;;;;5021887;28;20041;-70
2023/07/03 06:07:22;;;;;;;5.93;1.73;;;17.10;99.90;;;;;;5008963;28;20220;-71
2023/07/03 06:10:30;;;;;;;;;;;;;;;;;;;;;
2023/07/03 06:13:05;;;;;;;9.35;1.98;;;17.20;99.90;;;;;;4986382;28;20056;-72
2023/07/03 06:15:56;;;;;;;9.30;2.05;;;17.20;99.90;;;;;;4994702;28;20104;-72
2023/07/03 06:18:52;;;;;;;14.15;1.90;;;17.20;99.90;;;;;;4930690;29;20092;-71
2023/07/03 06:24:20;;;;;;;8.55;1.60;;;17.50;99.90;;;;;;4908532;29;20047;-72
2023/07/03 06:26:50;;;;;;;6.45;1.73;;;17.70;99.90;;;;;;5024943;28;20102;-71
2023/07/03 06:30:32;;;;;;;10.38;2.67;;;18.10;99.90;;;;;;5012159;28;20100;-69
2023/07/03 06:33:09;;;;;;;8.05;2.08;;;17.90;99.90;;;;;;4948976;28;20045;-70
2023/07/03 06:39:12;;;;;;;13.95;2.75;;;17.80;99.90;;;;;;1327925;26;20314;-74
2023/07/03 06:41:38;;;;;;;7.93;1.70;;;;;;;;;;5023874;28;20142;-71
2023/07/03 06:44:37;;;;;;;8.80;2.03;;;18.10;99.90;;;;;;5011167;28;20140;-70
2023/07/03 06:50:34;;;;;;;13.48;2.10;;;18.20;99.90;;;;;;5035168;22;20550;-70
2023/07/03 06:52:59;;;;;;;18.83;3.47;;;18.10;99.90;;;;;;5029680;28;20034;-70
2023/07/03 06:55:25;;;;;;;6.32;1.35;;;18.10;99.90;;;;;;5019542;28;20765;-70
2023/07/03 06:57:50;;;;;;;6.07;1.17;;;18.20;99.90;;;;;;5015209;28;20069;-68
2023/07/03 07:00:17;;;;;;;8.65;2.25;;;17.90;99.90;;;;;;5015314;28;20044;-68
2023/07/03 07:02:42;;;;;;;9.85;1.40;;;18.00;99.90;;;;;;5018907;28;20168;-67
2023/07/03 07:05:08;;;;;;;18.02;3.42;;;18.10;99.90;;;;;;5039273;28;20472;-68
2023/07/03 07:07:34;;;;;;;38.38;5.68;;;18.00;99.90;;;;;;5018690;28;20049;-68
2023/07/03 07:09:59;;;;;;;23.60;3.45;;;17.90;99.90;;;;;;5034891;28;20029;-68
2023/07/03 07:12:25;;;;;;;14.55;1.60;;;18.20;99.90;;;;;;5028321;28;20114;-68
2023/07/03 07:14:51;;;;;;;4.22;1.33;;;17.70;99.90;;;;;;5017764;28;20501;-68
2023/07/03 07:17:16;;;;;;;5.93;1.42;;;17.60;99.90;;;;;;5022660;28;20063;-68
2023/07/03 07:19:42;;;;;;;9.25;1.70;;;17.40;99.90;;;;;;5021562;28;20102;-68
2023/07/03 07:22:07;;;;;;;6.47;1.70;;;17.40;99.90;;;;;;5026541;28;20064;-68
2023/07/03 07:24:33;;;;;;;8.65;2.65;;;17.20;99.90;;;;;;5040905;28;20041;-68
2023/07/03 07:27:00;;;;;;;7.10;1.63;;;17.40;99.90;;;;;;5021184;28;20040;-68
2023/07/03 07:29:26;;;;;;;5.80;1.60;;;17.30;99.90;;;;;;5019103;28;20056;-69
2023/07/03 07:31:56;;;;;;;14.55;2.13;;;17.70;99.90;;;;;;5044488;28;20067;-68
2023/07/03 07:34:23;;;;;;;10.35;1.48;;;17.50;99.90;;;;;;5035584;28;20532;-69
2023/07/03 07:36:49;;;;;;;5.35;1.30;;;17.60;99.90;;;;;;5054303;28;20442;-69
2023/07/03 07:39:15;;;;;;;8.85;1.75;;;17.70;99.90;;;;;;5053985;28;20041;-69
2023/07/03 07:41:40;;;;;;;10.23;2.28;;;17.60;99.90;;;;;;5036519;28;20432;-69
2023/07/03 07:44:06;;;;;;;13.27;2.67;;;17.60;99.90;;;;;;5036519;28;20155;-69
2023/07/03 07:46:33;;;;;;;7.30;1.63;;;17.90;99.90;;;;;;5036618;28;20048;-68
2023/07/03 07:49:00;;;;;;;8.75;1.88;;;17.80;99.90;;;;;;5035848;28;20071;-68
2023/07/03 07:51:26;;;;;;;10.30;1.55;;;18.10;99.90;;;;;;5034818;28;20029;-69
2023/07/03 07:53:53;;;;;;;6.93;1.83;;;18.00;99.90;;;;;;5035720;28;20032;-69
2023/07/03 07:56:20;;;;;;;9.35;1.70;;;17.90;99.90;;;;;;5035807;28;20501;-69
2023/07/03 07:58:46;;;;;;;6.72;1.42;;;18.20;99.90;;;;;;5035247;28;20031;-69
2023/07/03 08:01:14;;;;;;;5.22;1.80;;;19.00;99.90;;;;;;5035451;28;20045;-69
2023/07/03 08:03:41;;;;;;;7.70;1.40;;;18.90;99.90;;;;;;5035736;28;20049;-67
2023/07/03 08:06:07;;;;;;;7.13;1.80;;;18.60;99.90;;;;;;5053813;28;20507;-69
2023/07/03 08:08:33;;;;;;;8.63;2.17;;;18.60;99.90;;;;;;5035592;28;20043;-68
2023/07/03 08:11:01;;;;;;;10.05;1.77;;;18.80;99.90;;;;;;5035508;28;20033;-69
2023/07/03 08:13:29;;;;;;;6.47;2.03;;;18.70;99.90;;;;;;5029497;28;20465;-69
2023/07/03 08:15:54;;;;;;;9.55;1.55;;;18.80;99.90;;;;;;5014302;28;20497;-69
2023/07/03 08:18:21;;;;;;;4.38;1.58;;;18.80;99.90;;;;;;5016177;28;20037;-69
2023/07/03 08:20:47;;;;;;;5.35;1.55;;;18.70;99.90;;;;;;5016058;28;20076;-69
2023/07/03 08:23:13;;;;;;;9.75;1.50;;;18.40;99.90;;;;;;5016062;28;20048;-69
2023/07/03 08:25:40;;;;;;;4.95;1.58;;;18.70;99.90;;;;;;5014805;28;20038;-69
2023/07/03 08:28:05;;;;;;;6.93;1.70;;;18.80;99.90;;;;;;5015140;28;20178;-67
2023/07/03 08:30:31;;;;;;;8.90;1.40;;;18.60;99.90;;;;;;5034565;28;20491;-68
2023/07/03 08:32:56;;;;;;;8.23;1.75;;;18.90;99.90;;;;;;5034572;28;20041;-69
2023/07/03 08:35:22;;;;;;;6.13;1.58;;;18.40;99.90;;;;;;5035480;28;20127;-69
2023/07/03 08:37:48;;;;;;;3.10;1.27;;;18.30;99.90;;;;;;5035245;28;20072;-69
2023/07/03 08:40:21;;;;;;;8.02;1.23;;;18.50;99.90;;;;;;5034502;28;20041;-69
2023/07/03 08:42:57;;;;;;;5.40;1.08;;;18.60;99.90;;;;;;5035361;28;20071;-69
2023/07/03 08:45:33;;;;;;;9.88;2.10;;;18.50;99.90;;;;;;5035159;28;20049;-69
2023/07/03 08:48:01;;;;;;;12.27;1.80;;;18.50;99.90;;;;;;5035150;28;20040;-69
2023/07/03 08:50:28;;;;;;;6.45;1.13;;;18.30;99.90;;;;;;5033977;28;20047;-69
2023/07/03 08:52:57;;;;;;;8.40;1.95;;;18.20;99.90;;;;;;5035259;28;20522;-69
2023/07/03 08:55:42;;;;;;;7.45;1.48;;;18.50;99.90;;;;;;5052708;28;20037;-69
2023/07/03 08:58:08;;;;;;;5.97;1.55;;;18.20;99.90;;;;;;5034416;28;20692;-68
2023/07/03 09:00:46;;;;;;;6.40;1.35;;;18.60;99.90;;;;;;5052342;28;20043;-69
2023/07/03 09:03:39;;;;;;;3.85;0.85;;;18.80;99.90;;;;;;5034819;28;20040;-69
2023/07/03 09:06:47;;;;;;;4.35;1.00;;;18.80;99.90;;;;;;5034918;28;20076;-69
2023/07/03 09:09:38;;;;;;;5.50;1.08;;;18.60;99.90;;;;;;4988145;28;20417;-69
2023/07/03 09:12:28;;;;;;;11.23;1.55;;;18.80;99.90;;;;;;5015125;28;20045;-69
2023/07/03 09:15:15;;;;;;;5.88;1.42;;;18.70;99.90;;;;;;5014792;28;20049;-69
2023/07/03 09:17:43;;;;;;;6.65;1.67;;;18.60;99.90;;;;;;5014709;28;20049;-69
2023/07/03 09:20:12;;;;;;;6.55;1.50;;;18.30;99.90;;;;;;5014057;28;20505;-69
2023/07/03 09:22:44;;;;;;;3.38;1.10;;;18.50;99.90;;;;;;5014719;28;20493;-68
2023/07/03 09:25:39;;;;;;;9.45;1.75;;;18.30;99.90;;;;;;5014633;28;20490;-69
2023/07/03 09:28:06;;;;;;;3.47;1.02;;;18.30;99.90;;;;;;5014490;28;20452;-68
2023/07/03 09:30:32;;;;;;;3.35;1.00;;;18.10;99.90;;;;;;4997568;28;20128;-68
2023/07/03 09:32:58;;;;;;;3.33;1.13;;;18.00;99.90;;;;;;5014484;28;20568;-68
2023/07/03 09:35:36;;;;;;;6.30;1.33;;;17.90;99.90;;;;;;5031886;28;20033;-69
2023/07/03 09:38:05;;;;;;;7.55;1.95;;;18.00;99.90;;;;;;5014369;28;20405;-68
2023/07/03 09:40:39;;;;;;;4.18;1.25;;;17.90;99.90;;;;;;4997580;28;20132;-68
2023/07/03 09:43:26;;;;;;;6.90;1.92;;;17.60;99.90;;;;;;5014285;28;20063;-68
2023/07/03 09:46:09;;;;;;;5.20;1.30;;;17.20;99.90;;;;;;5013990;28;20056;-68
2023/07/03 09:48:36;;;;;;;13.00;1.70;;;17.00;99.90;;;;;;5013943;28;20401;-68
2023/07/03 09:51:26;;;;;;;5.38;1.45;;;16.80;99.90;;;;;;5012086;28;20033;-68
2023/07/03 09:53:53;;;;;;;6.70;1.23;;;16.70;99.90;;;;;;5032772;28;20045;-67
2023/07/03 09:56:22;;;;;;;6.55;1.70;;;16.90;99.90;;;;;;5051493;28;20100;-68
2023/07/03 09:58:51;;;;;;;7.43;1.90;;;16.90;99.90;;;;;;5033111;28;20048;-68
2023/07/03 10:01:26;;;;;;;7.15;1.70;;;17.20;99.90;;;;;;5033654;28;20044;-68
2023/07/03 10:04:10;;;;;;;9.82;2.40;;;17.90;99.90;;;;;;5033679;28;20094;-68
2023/07/03 10:06:37;;;;;;;9.68;2.20;;;18.10;99.90;;;;;;5051233;28;20092;-68
2023/07/03 10:09:18;;;;;;;6.65;1.70;;;18.60;99.90;;;;;;5051071;28;20052;-67
2023/07/03 10:11:53;;;;;;;16.75;2.70;;;18.30;99.90;;;;;;5033563;28;20075;-68
2023/07/03 10:14:25;;;;;;;8.55;2.47;;;18.40;99.90;;;;;;5033226;28;20041;-68
2023/07/03 10:16:52;;;;;;;7.68;1.80;;;17.90;99.90;;;;;;5050905;28;20562;-68
2023/07/03 10:19:20;;;;;;;2.95;1.08;;;17.70;99.90;;;;;;5032507;28;20044;-68
2023/07/03 10:21:47;;;;;;;8.15;1.55;;;17.30;99.90;;;;;;5033447;28;20041;-68
2023/07/03 10:24:14;;;;;;;6.97;1.52;;;17.40;99.90;;;;;;5051390;28;20041;-68
2023/07/03 10:26:47;;;;;;;7.97;2.20;;;17.50;99.90;;;;;;5032794;28;20143;-69
2023/07/03 10:29:28;;;;;;;7.03;1.55;;;17.70;99.90;;;;;;5050341;28;20048;-68
2023/07/03 10:32:03;;;;;;;6.30;1.77;;;18.00;99.90;;;;;;5032877;28;20053;-68
2023/07/03 10:34:41;;;;;;;10.15;2.47;;;18.20;99.90;;;;;;5017367;28;20564;-69
2023/07/03 10:37:10;;;;;;;5.78;1.48;;;18.60;99.90;;;;;;5034321;28;20037;-68
2023/07/03 10:39:50;;;;;;;11.93;2.10;;;19.00;99.90;;;;;;5032786;28;20052;-67
2023/07/03 10:42:34;;;;;;;6.35;1.55;;;18.70;99.90;;;;;;5051190;28;20037;-68
2023/07/03 10:45:09;;;;;;;2.75;1.35;;;18.80;99.90;;;;;;5033205;28;20523;-68
2023/07/03 10:47:57;;;;;;;6.57;1.58;;;19.20;99.90;;;;;;5033333;28;20099;-68
2023/07/03 10:50:36;;;;;;;7.18;1.60;;;19.60;99.90;;;;;;5034665;28;20048;-68
2023/07/03 10:53:19;;;;;;;3.60;1.70;;;19.60;99.90;;;;;;5037218;28;20099;-68
2023/07/03 10:56:18;;;;;;;3.20;0.85;;;19.90;99.90;;;;;;5055151;28;20045;-68
2023/07/03 10:59:11;;;;;;;6.93;1.80;;;20.00;99.90;;;;;;5024386;28;20046;-68
2023/07/03 11:01:44;;;;;;;6.10;1.67;;;19.80;99.90;;;;;;5034147;28;20048;-69
2023/07/03 11:04:21;;;;;;;;;;;19.70;99.90;;;;;;5036801;28;20041;-68
2023/07/03 11:06:57;;;;;;;2.67;0.98;;;19.80;99.90;;;;;;5034381;28;20347;-68
2023/07/03 11:09:37;;;;;;;4.82;1.30;;;20.20;99.90;;;;;;5051180;28;20400;-69
2023/07/03 11:12:19;;;;;;;3.38;0.95;;;19.90;99.90;;;;;;5054727;28;20041;-69
2023/07/03 11:14:55;;;;;;;4.07;0.93;;;19.80;99.90;;;;;;5036546;28;20052;-69
2023/07/03 11:17:45;;;;;;;7.45;1.38;;;19.20;99.90;;;;;;5036406;28;20044;-68
2023/07/03 11:20:14;;;;;;;4.28;1.33;;;18.90;99.90;;;;;;5035507;28;20438;-69
2023/07/03 11:22:48;;;;;;;4.82;1.20;;;18.90;99.90;;;;;;5036545;28;20040;-69
2023/07/03 11:25:24;;;;;;;2.92;1.30;;;19.00;99.90;;;;;;5036564;28;20435;-69
2023/07/03 11:28:02;;;;;;;4.75;1.10;;;18.70;99.90;;;;;;5036579;28;20243;-69
2023/07/03 11:30:29;;;;;;;3.97;1.15;;;19.00;99.90;;;;;;5019063;28;20130;-69
2023/07/03 11:32:57;;;;;;;7.43;1.42;;;19.50;99.90;;;;;;5054546;28;20045;-68
2023/07/03 11:35:23;;;;;;;9.77;1.45;;;20.00;99.90;;;;;;5020107;28;20488;-69
2023/07/03 11:38:00;;;;;;;6.13;1.60;;;20.70;99.90;;;;;;5036456;28;20083;-69
2023/07/03 11:40:35;;;;;;;4.72;1.10;;;20.50;99.90;;;;;;5053263;28;20045;-68
2023/07/03 11:43:32;;;;;;;4.03;0.95;;;20.10;99.90;;;;;;5036246;28;20516;-68
2023/07/03 11:45:57;;;;;;;6.93;1.23;;;19.80;99.90;;;;;;5036456;28;20504;-69
2023/07/03 11:48:40;;;;;;;5.55;1.33;;;19.60;99.90;;;;;;5035850;28;20049;-69
2023/07/03 11:51:14;;;;;;;3.93;0.90;;;19.30;99.90;;;;;;5035740;28;20077;-69
2023/07/03 11:53:53;;;;;;;4.38;1.00;;;19.40;99.90;;;;;;5036317;28;20037;-68
2023/07/03 11:56:30;;;;;;;7.15;1.13;;;19.20;99.90;;;;;;5035928;28;20043;-68
2023/07/03 11:59:09;;;;;;;6.63;1.70;;;19.20;99.90;;;;;;5034775;28;20187;-68
2023/07/03 12:01:36;;;;;;;7.78;1.80;;;19.00;99.90;;;;;;5035318;28;20045;-68
2023/07/03 12:04:08;;;;;;;6.15;1.70;;;19.00;99.90;;;;;;5035839;28;20130;-68
2023/07/03 12:06:40;;;;;;;4.27;1.27;;;18.80;99.90;;;;;;5035714;28;20565;-68
2023/07/03 12:09:21;;;;;;;7.43;1.50;;;18.80;99.90;;;;;;5035228;28;20439;-68
2023/07/03 12:12:06;;;;;;;6.10;1.35;;;19.00;99.90;;;;;;5035358;28;20053;-68
2023/07/03 12:15:09;;;;;;;4.88;1.20;;;18.80;99.90;;;;;;5053491;28;20412;-70
2023/07/03 12:17:35;;;;;;;5.72;1.25;;;18.70;99.90;;;;;;5035237;28;20048;-68
2023/07/03 12:20:10;;;;;;;8.73;2.03;;;18.60;99.90;;;;;;5034770;28;20053;-68
2023/07/03 12:22:50;;;;;;;8.85;1.45;;;18.50;99.90;;;;;;5035750;28;20151;-69
2023/07/03 12:25:27;;;;;;;3.75;1.30;;;18.30;99.90;;;;;;5035491;28;20493;-68
2023/07/03 12:27:54;;;;;;;7.00;1.50;;;18.60;99.90;;;;;;5035698;28;20075;-69
2023/07/03 12:30:28;;;;;;;8.07;1.45;;;18.70;99.90;;;;;;5034700;28;20528;-68
2023/07/03 12:32:56;;;;;;;4.10;1.23;;;18.70;99.90;;;;;;5053257;28;20492;-68
2023/07/03 12:35:27;;;;;;;6.20;1.30;;;18.60;99.90;;;;;;5053280;28;20039;-69
2023/07/03 12:37:55;;;;;;;4.07;1.08;;;18.70;99.90;;;;;;5035170;28;20029;-68
2023/07/03 12:40:22;;;;;;;7.38;1.98;;;18.90;99.90;;;;;;5034581;28;20093;-68
2023/07/03 12:42:51;;;;;;;9.35;1.60;;;18.90;99.90;;;;;;5035627;28;20587;-70
2023/07/03 12:45:24;;;;;;;7.47;1.40;;;18.70;99.90;;;;;;5034986;28;20041;-67
2023/07/03 12:48:08;;;;;;;;;;;18.50;99.90;;;;;;5035619;28;20179;-67
2023/07/03 12:50:48;;;;;;;7.82;1.48;;;18.70;99.90;;;;;;5057848;22;20409;-71
2023/07/03 12:53:15;;;;;;;8.98;1.58;;;18.50;99.90;;;;;;5053461;28;20047;-72
2023/07/03 12:55:46;;;;;;;7.82;1.30;;;18.50;99.90;;;;;;5053532;28;20468;-71
2023/07/03 12:58:12;;;;;;;4.13;1.35;;;18.60;99.90;;;;;;5035559;28;20496;-71
2023/07/03 13:00:41;;;;;;;4.75;1.27;;;18.80;99.90;;;;;;5021950;28;20060;-71
2023/07/03 13:03:13;;;;;;;9.13;1.35;;;18.90;99.90;;;;;;5016140;28;20033;-72
2023/07/03 13:05:39;;;;;;;6.10;1.50;;;18.80;99.90;;;;;;5015402;28;20533;-71
2023/07/03 13:08:12;;;;;;;6.68;1.15;;;19.10;99.90;;;;;;5016049;28;20037;-73
2023/07/03 13:10:38;;;;;;;;;;;19.20;99.90;;;;;;4999336;28;20033;-71
2023/07/03 13:13:18;;;;;;;3.17;0.98;;;19.20;99.90;;;;;;5014701;28;19932;-71
2023/07/03 13:15:45;;;;;;;4.35;1.00;;;19.80;99.90;;;;;;5015675;28;20045;-72
2023/07/03 13:18:19;;;;;;;5.90;1.30;;;20.20;99.90;;;;;;5015429;28;20042;-71
2023/07/03 13:20:57;;;;;;;4.13;1.05;;;20.30;99.90;;;;;;5031974;28;20524;-71
2023/07/03 13:23:36;;;;;;;6.07;1.40;;;20.30;99.90;;;;;;5032974;28;20068;-71
2023/07/03 13:26:07;;;;;;;3.47;0.90;;;20.40;99.90;;;;;;5015320;28;20054;-72
2023/07/03 13:28:37;;;;;;;3.42;1.00;;;20.20;99.90;;;;;;4998883;28;20130;-71
2023/07/03 13:31:18;;;;;;;3.80;1.20;;;20.70;99.90;;;;;;4998537;28;20037;-71
2023/07/03 13:34:01;;;;;;;3.90;1.55;;;21.00;99.90;;;;;;4999260;28;20444;-71
2023/07/03 13:36:30;;;;;;;5.00;1.20;;;21.20;99.90;;;;;;4998733;28;20050;-71
2023/07/03 13:39:07;;;;;;;4.70;1.10;;;20.90;99.90;;;;;;4998325;28;20463;-72
2023/07/03 13:41:33;;;;;;;4.70;1.20;;;20.70;99.90;;;;;;4998727;28;20081;-71
2023/07/03 13:43:59;;;;;;;5.22;1.08;;;20.70;99.90;;;;;;5014925;28;20041;-71
2023/07/03 13:46:27;;;;;;;5.13;1.30;;;20.90;99.90;;;;;;5032643;28;20437;-71
2023/07/03 13:48:53;;;;;;;3.40;1.02;;;20.70;99.90;;;;;;5014922;28;20103;-72
2023/07/03 13:51:19;;;;;;;6.82;1.85;;;20.90;99.90;;;;;;5032349;28;20037;-71
2023/07/03 13:53:47;;;;;;;8.50;1.13;;;20.90;99.90;;;;;;5014485;28;20046;-69
2023/07/03 13:56:15;;;;;;;1.52;0.88;;;20.70;99.90;;;;;;4998973;28;20131;-72
2023/07/03 13:58:41;;;;;;;5.70;1.45;;;20.90;99.90;;;;;;5014404;28;20064;-71
2023/07/03 14:01:07;;;;;;;3.92;1.10;;;;;;;;;;5014610;28;20037;-71
2023/07/03 14:03:33;;;;;;;3.30;1.05;;;;;;;;;;5032409;28;20448;-72
2023/07/03 14:05:59;;;;;;;5.00;1.20;;;;;;;;;;5014985;28;20048;-72
2023/07/03 14:08:28;;;;;;;9.98;1.60;;;21.50;99.90;;;;;;5013310;28;20033;-72
2023/07/03 14:10:54;;;;;;;5.03;1.10;;;21.60;99.30;;;;;;5018179;28;20074;-71
2023/07/03 14:13:21;;;;;;;5.47;1.23;;;21.10;99.90;;;;;;5026224;28;20244;-72
2023/07/03 14:15:47;;;;;;;4.15;1.20;;;20.40;99.60;;;;;;4998042;28;20118;-70
2023/07/03 14:18:15;;;;;;;5.10;1.20;;;;;;;;;;5013881;28;20311;-69
2023/07/03 14:20:41;;;;;;;6.20;1.38;;;20.60;99.40;;;;;;5031144;28;20045;-70
2023/07/03 14:23:07;;;;;;;5.40;1.40;;;20.50;99.90;;;;;;5031899;28;20409;-70
2023/07/03 14:25:36;;;;;;;3.70;0.98;;;20.30;99.80;;;;;;4998191;28;20053;-70
2023/07/03 14:28:02;;;;;;;4.35;1.23;;;19.90;99.90;;;;;;4998618;28;20045;-68
2023/07/03 14:30:28;;;;;;;5.35;1.50;;;19.70;99.90;;;;;;4997388;28;20060;-69
2023/07/03 14:32:53;;;;;;;4.45;1.27;;;19.80;99.90;;;;;;5014323;28;20095;-69
2023/07/03 14:35:19;;;;;;;3.97;1.35;;;19.70;99.90;;;;;;5014282;28;20099;-70
2023/07/03 14:37:46;;;;;;;5.55;1.23;;;;;;;;;;5032534;28;20044;-70